Time;durP1;ratioP1;P1;durP2;ratioP2;P2;SDS_P1;SDS_P2;PMS_P1;PMS_P2;Temp;Humidity;BMP_temperature;BMP_pressure;BME280_temperature;BME280_humidity;BME280_pressure;Samples;Min_cycle;Max_cycle;Signal;HPM_P1;HPM_P2
2021/07/27 00:02:10;;;;;;;6.47;5.57;;;16.50;56.80;;;;;;5119393;28;20196;-70
2021/07/27 00:04:35;;;;;;;9.80;4.43;;;16.40;56.60;;;;;;5119193;28;20418;-70
2021/07/27 00:07:01;;;;;;;4.27;3.57;;;16.40;57.00;;;;;;5119511;28;20200;-70
2021/07/27 00:09:27;;;;;;;4.67;3.80;;;16.40;57.00;;;;;;5123035;28;20546;-70
2021/07/27 00:11:52;;;;;;;7.20;4.20;;;16.40;56.60;;;;;;5120548;28;20200;-70
2021/07/27 00:14:18;;;;;;;5.23;3.80;;;16.40;56.60;;;;;;5118658;28;20175;-70
2021/07/27 00:16:43;;;;;;;8.53;5.27;;;16.40;56.30;;;;;;5119443;28;20181;-70
2021/07/27 00:19:09;;;;;;;5.13;3.70;;;16.30;55.90;;;;;;5117532;28;20181;-70
2021/07/27 00:21:34;;;;;;;5.07;4.20;;;16.20;56.20;;;;;;5118697;28;20223;-70
2021/07/27 00:24:00;;;;;;;4.87;4.37;;;16.20;56.20;;;;;;5117909;28;20208;-70
2021/07/27 00:26:26;;;;;;;5.87;4.87;;;16.10;56.10;;;;;;5119294;28;20646;-70
2021/07/27 00:28:51;;;;;;;7.53;4.30;;;16.10;56.80;;;;;;5118471;28;20165;-70
2021/07/27 00:31:19;;;;;;;4.73;4.30;;;16.00;56.70;;;;;;5118421;28;20242;-70
2021/07/27 00:33:46;;;;;;;5.50;4.33;;;16.00;56.70;;;;;;5119185;28;20410;-73
2021/07/27 00:36:11;;;;;;;7.73;4.40;;;16.00;56.70;;;;;;5118584;28;20434;-71
2021/07/27 00:38:37;;;;;;;5.83;4.73;;;15.90;56.60;;;;;;5117438;28;20419;-71
2021/07/27 00:41:03;;;;;;;4.40;3.83;;;15.90;56.60;;;;;;5118323;27;20172;-71
2021/07/27 00:43:28;;;;;;;9.13;5.20;;;15.90;56.60;;;;;;5118740;28;20168;-70
2021/07/27 00:45:54;;;;;;;5.10;4.20;;;15.80;56.60;;;;;;5117804;28;20629;-71
2021/07/27 00:48:20;;;;;;;6.77;4.97;;;15.80;56.50;;;;;;5118854;28;20200;-71
2021/07/27 00:50:45;;;;;;;7.53;5.63;;;15.80;56.60;;;;;;5118952;28;20169;-71
2021/07/27 00:53:13;;;;;;;8.70;4.70;;;15.80;56.50;;;;;;5118135;28;20198;-71
2021/07/27 00:55:40;;;;;;;4.63;4.23;;;15.80;56.60;;;;;;5119050;28;20259;-69
2021/07/27 00:58:05;;;;;;;5.10;4.60;;;15.80;56.50;;;;;;5118370;28;20501;-70
2021/07/27 01:00:31;;;;;;;6.40;4.70;;;15.80;56.50;;;;;;5118871;28;21002;-71
2021/07/27 01:02:57;;;;;;;7.37;4.10;;;15.80;56.50;;;;;;5116908;28;20200;-71
2021/07/27 01:05:25;;;;;;;7.70;3.83;;;15.70;56.10;;;;;;5118419;28;20195;-71
2021/07/27 01:07:51;;;;;;;5.53;4.40;;;15.70;56.30;;;;;;5135073;27;20211;-71
2021/07/27 01:10:17;;;;;;;5.17;4.40;;;15.60;56.30;;;;;;5118175;28;20410;-71
2021/07/27 01:12:45;;;;;;;8.60;4.60;;;15.50;56.20;;;;;;5118760;28;20509;-71
2021/07/27 01:15:11;;;;;;;8.73;5.07;;;15.50;56.30;;;;;;5118570;28;20453;-71
2021/07/27 01:17:37;;;;;;;15.10;4.90;;;15.40;56.60;;;;;;5119259;28;20440;-70
2021/07/27 01:39:25;;;;;;;4.90;4.43;;;15.20;57.60;;;;;;5117134;28;20535;-70
2021/07/27 01:42:04;;;;;;;5.03;4.53;;;15.20;57.80;;;;;;5117672;28;20512;-70
2021/07/27 01:44:31;;;;;;;8.17;4.80;;;15.20;57.90;;;;;;5117699;28;20429;-70
2021/07/27 01:46:57;;;;;;;7.63;4.53;;;15.20;57.70;;;;;;5117850;28;20571;-70
2021/07/27 01:49:23;;;;;;;5.43;4.93;;;15.20;58.10;;;;;;5118129;28;20418;-70
2021/07/27 01:51:48;;;;;;;16.10;5.30;;;15.20;58.00;;;;;;5117376;28;20222;-70
2021/07/27 01:54:16;;;;;;;5.00;4.23;;;15.20;57.80;;;;;;5118219;28;20164;-70
2021/07/27 01:56:49;;;;;;;5.20;4.47;;;15.20;57.80;;;;;;5117035;28;20172;-71
2021/07/27 01:59:14;;;;;;;4.63;4.20;;;15.20;58.10;;;;;;5117354;28;20772;-70
2021/07/27 02:01:40;;;;;;;6.50;4.67;;;15.30;57.60;;;;;;5116466;28;20456;-70
2021/07/27 02:04:06;;;;;;;5.70;3.93;;;15.30;57.70;;;;;;5117397;28;20176;-70
2021/07/27 02:06:31;;;;;;;5.90;3.80;;;15.30;57.50;;;;;;5117629;28;20593;-70
2021/07/27 02:09:02;;;;;;;5.97;4.93;;;15.30;57.00;;;;;;5119247;28;20243;-70
2021/07/27 02:11:37;;;;;;;5.07;4.37;;;15.30;56.90;;;;;;5121188;28;20607;-70
2021/07/27 02:14:03;;;;;;;5.13;4.63;;;15.30;56.80;;;;;;5119121;28;20404;-71
2021/07/27 02:16:29;;;;;;;4.70;3.73;;;15.30;56.30;;;;;;5117477;28;20407;-69
2021/07/27 02:19:00;;;;;;;4.40;3.13;;;15.30;56.30;;;;;;5117293;28;20471;-71
2021/07/27 02:21:25;;;;;;;5.20;4.30;;;15.30;56.10;;;;;;5116895;28;20257;-71
2021/07/27 02:23:51;;;;;;;5.10;4.60;;;15.30;56.10;;;;;;5112391;28;20780;-70
2021/07/27 02:26:16;;;;;;;5.03;3.40;;;15.30;56.10;;;;;;5110696;28;20172;-70
2021/07/27 02:28:42;;;;;;;4.17;3.43;;;15.30;56.10;;;;;;5112040;28;20176;-71
2021/07/27 02:31:13;;;;;;;4.67;4.27;;;15.20;55.80;;;;;;5111758;28;20179;-69
2021/07/27 02:33:38;;;;;;;7.30;4.57;;;15.20;55.30;;;;;;5112182;28;20253;-70
2021/07/27 02:36:04;;;;;;;4.43;3.80;;;15.20;55.10;;;;;;5111741;28;20497;-69
2021/07/27 02:38:30;;;;;;;7.70;3.83;;;15.20;55.40;;;;;;5111364;28;20176;-69
2021/07/27 02:40:55;;;;;;;4.97;3.70;;;15.20;55.70;;;;;;5112000;28;20258;-70
2021/07/27 02:43:21;;;;;;;6.47;4.57;;;15.10;55.90;;;;;;5111751;28;20175;-70
2021/07/27 02:45:46;;;;;;;5.23;4.73;;;15.20;56.00;;;;;;5111744;28;20172;-70
2021/07/27 02:48:12;;;;;;;5.07;4.33;;;15.20;56.00;;;;;;5111600;28;20212;-70
2021/07/27 02:50:37;;;;;;;5.80;4.63;;;15.20;56.00;;;;;;5111768;28;20164;-70
2021/07/27 02:53:03;;;;;;;6.57;4.67;;;15.20;56.00;;;;;;5111709;28;20220;-70
2021/07/27 02:55:28;;;;;;;4.63;4.13;;;15.20;56.70;;;;;;5111787;28;20551;-70
2021/07/27 02:57:54;;;;;;;5.47;3.97;;;15.20;56.00;;;;;;5111557;28;20536;-70
2021/07/27 03:00:21;;;;;;;5.20;4.10;;;15.20;55.30;;;;;;5110020;28;20180;-70
2021/07/27 03:02:46;;;;;;;4.60;4.20;;;15.10;55.20;;;;;;5110091;28;20200;-69
2021/07/27 03:05:14;;;;;;;4.70;4.10;;;15.10;55.10;;;;;;5111642;28;20416;-71
2021/07/27 03:10:22;;;;;;;5.40;3.77;;;15.10;54.60;;;;;;5111277;28;20410;-70
2021/07/27 03:12:52;;;;;;;6.30;4.23;;;15.10;54.90;;;;;;5111286;28;20449;-69
2021/07/27 03:15:19;;;;;;;4.27;3.60;;;15.00;55.10;;;;;;5111516;28;20502;-70
2021/07/27 03:17:45;;;;;;;6.70;4.10;;;15.00;55.50;;;;;;5111524;28;20422;-70
2021/07/27 03:20:14;;;;;;;5.93;4.30;;;14.90;55.10;;;;;;5111363;28;20458;-70
2021/07/27 03:22:42;;;;;;;4.33;3.70;;;14.90;55.30;;;;;;5110031;28;20758;-70
2021/07/27 03:25:10;;;;;;;5.90;4.90;;;14.90;55.70;;;;;;5109894;28;20509;-71
2021/07/27 03:27:38;;;;;;;4.67;4.30;;;14.90;55.70;;;;;;5111282;28;21045;-70
2021/07/27 03:30:04;;;;;;;6.63;4.83;;;14.90;55.70;;;;;;5111352;28;20488;-70
2021/07/27 03:32:34;;;;;;;7.17;3.83;;;14.90;55.80;;;;;;5111143;28;20444;-70
2021/07/27 03:35:00;;;;;;;7.93;5.47;;;14.90;55.70;;;;;;5111337;28;20421;-69
2021/07/27 03:37:25;;;;;;;5.90;3.90;;;14.80;55.60;;;;;;5111290;28;20410;-71
2021/07/27 03:39:51;;;;;;;7.60;5.50;;;14.80;55.60;;;;;;5111588;28;20630;-70
2021/07/27 03:42:17;;;;;;;4.73;3.63;;;14.70;55.60;;;;;;5111661;28;20196;-69
2021/07/27 03:44:42;;;;;;;7.10;3.63;;;14.70;55.50;;;;;;5111641;28;20184;-71
2021/07/27 03:47:08;;;;;;;7.50;3.80;;;14.70;56.00;;;;;;5111755;28;20203;-69
2021/07/27 03:49:34;;;;;;;5.40;3.90;;;14.70;55.70;;;;;;5113934;28;20176;-70
2021/07/27 03:52:04;;;;;;;5.13;4.53;;;14.70;56.10;;;;;;5114789;28;20194;-70
2021/07/27 03:54:31;;;;;;;4.90;4.23;;;14.70;55.60;;;;;;5114802;28;20167;-69
2021/07/27 03:56:57;;;;;;;6.93;4.70;;;14.60;56.30;;;;;;5114812;28;20460;-69
2021/07/27 03:59:22;;;;;;;5.90;4.83;;;14.60;55.90;;;;;;5113259;28;20457;-70
2021/07/27 04:01:49;;;;;;;6.30;4.23;;;14.70;56.50;;;;;;5114937;28;20202;-70
2021/07/27 04:04:19;;;;;;;7.77;4.70;;;14.60;56.30;;;;;;5114619;27;20182;-69
2021/07/27 04:06:48;;;;;;;5.53;3.83;;;14.70;56.10;;;;;;5114745;28;20465;-69
2021/07/27 04:09:14;;;;;;;4.13;3.50;;;14.70;55.50;;;;;;5114782;28;20777;-69
2021/07/27 04:11:39;;;;;;;6.73;4.93;;;14.70;55.50;;;;;;5113202;28;20438;-70
2021/07/27 04:14:05;;;;;;;8.43;4.90;;;14.70;55.50;;;;;;5114670;28;20750;-70
2021/07/27 04:16:31;;;;;;;5.77;4.93;;;14.70;55.60;;;;;;5114495;28;20198;-69
2021/07/27 04:18:57;;;;;;;6.10;4.83;;;14.60;56.10;;;;;;5113204;28;20421;-69
2021/07/27 04:21:27;;;;;;;5.30;4.13;;;14.60;56.60;;;;;;5114154;28;20208;-70
2021/07/27 04:23:52;;;;;;;6.00;5.10;;;14.60;56.70;;;;;;5114257;28;20454;-69
2021/07/27 04:26:18;;;;;;;6.87;5.07;;;14.60;57.50;;;;;;5114090;28;20446;-70
2021/07/27 04:28:44;;;;;;;4.70;4.27;;;14.60;56.50;;;;;;5114040;28;20186;-70
2021/07/27 04:31:09;;;;;;;5.60;4.10;;;14.70;56.10;;;;;;5107721;28;20185;-69
2021/07/27 04:33:37;;;;;;;8.23;4.90;;;14.80;55.60;;;;;;5095122;28;20411;-70
2021/07/27 04:36:03;;;;;;;5.63;4.10;;;14.80;54.90;;;;;;5093558;28;20175;-69
2021/07/27 04:38:29;;;;;;;10.13;5.00;;;14.80;54.80;;;;;;5092130;28;20422;-71
2021/07/27 04:40:55;;;;;;;5.80;5.20;;;14.70;54.60;;;;;;5093143;28;20465;-70
2021/07/27 04:43:20;;;;;;;6.20;5.03;;;14.70;55.50;;;;;;5093551;28;20180;-69
2021/07/27 04:45:46;;;;;;;4.10;3.70;;;14.80;55.60;;;;;;5092265;28;20419;-69
2021/07/27 04:48:12;;;;;;;8.80;4.87;;;14.90;55.50;;;;;;5091997;28;20205;-70
2021/07/27 04:50:39;;;;;;;3.83;3.10;;;15.00;54.30;;;;;;5107680;28;20233;-69
2021/07/27 04:53:08;;;;;;;6.67;4.63;;;15.10;53.00;;;;;;5114822;28;20192;-69
2021/07/27 04:55:33;;;;;;;4.20;3.80;;;15.10;52.80;;;;;;5114134;28;20492;-69
2021/07/27 04:58:02;;;;;;;9.43;4.47;;;15.20;52.50;;;;;;5113927;28;20974;-69
2021/07/27 05:00:28;;;;;;;8.70;3.57;;;15.30;52.50;;;;;;5113505;28;20176;-69
2021/07/27 05:02:55;;;;;;;5.40;4.60;;;15.40;51.90;;;;;;5114942;28;20494;-69
2021/07/27 05:05:21;;;;;;;4.97;3.57;;;15.40;51.20;;;;;;5113337;28;20175;-69
2021/07/27 05:07:46;;;;;;;8.80;4.70;;;15.40;50.60;;;;;;5111966;28;20462;-68
2021/07/27 05:10:13;;;;;;;6.30;4.03;;;15.50;50.50;;;;;;5113138;28;20229;-69
2021/07/27 05:12:38;;;;;;;10.20;4.67;;;15.60;50.30;;;;;;5113270;28;20212;-69
2021/07/27 05:15:05;;;;;;;6.93;4.47;;;16.10;50.80;;;;;;5113237;28;20835;-69
2021/07/27 05:17:31;;;;;;;5.47;3.80;;;17.20;43.80;;;;;;5129399;27;20203;-69
2021/07/27 05:19:57;;;;;;;5.13;3.67;;;18.40;38.50;;;;;;5111619;28;20410;-69
2021/07/27 05:22:23;;;;;;;4.63;3.10;;;19.20;35.30;;;;;;5113115;28;20571;-69
2021/07/27 05:24:50;;;;;;;4.63;4.17;;;19.80;32.00;;;;;;5113128;28;20651;-69
2021/07/27 05:27:15;;;;;;;6.37;4.17;;;20.30;30.50;;;;;;5112937;28;20465;-69
2021/07/27 05:29:41;;;;;;;5.83;3.63;;;20.70;29.90;;;;;;5112838;28;20414;-70
2021/07/27 05:32:07;;;;;;;10.17;3.87;;;21.30;28.90;;;;;;5113539;28;20677;-70
2021/07/27 05:34:32;;;;;;;8.40;3.90;;;22.20;28.00;;;;;;5111752;28;20176;-71
2021/07/27 05:36:58;;;;;;;3.93;3.53;;;23.40;24.50;;;;;;5112159;28;20237;-71
2021/07/27 05:39:23;;;;;;;4.57;4.07;;;24.30;23.60;;;;;;5113437;28;20248;-71
2021/07/27 05:41:49;;;;;;;4.00;3.07;;;25.40;20.80;;;;;;5079643;28;20255;-71
2021/07/27 05:44:14;;;;;;;4.20;3.80;;;26.30;19.00;;;;;;5091910;28;20231;-72
2021/07/27 05:46:40;;;;;;;4.23;3.93;;;26.90;18.10;;;;;;5098015;28;20192;-71
2021/07/27 05:49:09;;;;;;;6.23;3.70;;;27.20;17.70;;;;;;5112390;28;20190;-71
2021/07/27 05:51:35;;;;;;;5.03;4.53;;;27.60;16.40;;;;;;5112830;28;20267;-71
2021/07/27 05:54:00;;;;;;;4.77;3.73;;;27.90;16.10;;;;;;5111169;28;20824;-70
2021/07/27 05:56:26;;;;;;;4.70;3.90;;;28.20;16.30;;;;;;5112407;28;20180;-73
2021/07/27 05:58:51;;;;;;;4.80;4.30;;;28.50;15.30;;;;;;5110662;28;20173;-73
2021/07/27 06:01:17;;;;;;;4.50;4.00;;;28.80;14.50;;;;;;5100992;28;20208;-70
2021/07/27 06:03:42;;;;;;;6.57;4.40;;;28.70;15.20;;;;;;5092477;28;20642;-70
2021/07/27 06:06:08;;;;;;;5.30;3.73;;;29.00;14.30;;;;;;5092726;28;20261;-69
2021/07/27 06:08:34;;;;;;;3.97;3.67;;;29.20;13.60;;;;;;5103288;28;20180;-70
2021/07/27 06:10:59;;;;;;;4.73;4.33;;;29.40;13.30;;;;;;5087300;28;20201;-70
2021/07/27 06:13:25;;;;;;;6.37;4.50;;;29.30;13.80;;;;;;5071644;28;20170;-70
2021/07/27 06:15:50;;;;;;;5.63;4.60;;;29.70;13.00;;;;;;5110391;28;20240;-70
2021/07/27 06:18:16;;;;;;;5.10;4.70;;;30.20;11.80;;;;;;5110817;28;20173;-69
2021/07/27 06:20:41;;;;;;;5.33;4.83;;;30.60;11.20;;;;;;5111812;28;20180;-70
2021/07/27 06:23:07;;;;;;;5.83;4.33;;;31.10;10.20;;;;;;5111969;28;20223;-70
2021/07/27 06:25:32;;;;;;;6.50;5.00;;;31.80;9.90;;;;;;5111280;28;20177;-70
2021/07/27 06:27:58;;;;;;;6.03;5.40;;;32.50;9.20;;;;;;5085858;28;20266;-70
2021/07/27 06:30:23;;;;;;;6.10;5.67;;;32.80;7.80;;;;;;5073454;28;20669;-70
2021/07/27 06:32:49;;;;;;;6.20;5.60;;;33.00;7.50;;;;;;5086741;28;20204;-71
2021/07/27 06:35:15;;;;;;;6.40;6.10;;;32.80;8.30;;;;;;5111721;28;20287;-70
2021/07/27 06:37:41;;;;;;;5.80;5.50;;;32.30;9.10;;;;;;5110464;28;20545;-69
2021/07/27 06:40:07;;;;;;;7.50;6.97;;;31.90;8.50;;;;;;5111435;28;20406;-70
2021/07/27 06:42:33;;;;;;;8.23;7.50;;;31.60;8.80;;;;;;5127667;27;20223;-70
2021/07/27 06:44:58;;;;;;;8.10;7.43;;;30.90;9.60;;;;;;5111997;28;20414;-70
2021/07/27 06:47:24;;;;;;;10.00;9.20;;;29.90;10.50;;;;;;5110144;28;20208;-71
2021/07/27 06:49:50;;;;;;;9.27;8.53;;;28.80;12.70;;;;;;5109972;28;20173;-71
2021/07/27 06:52:20;;;;;;;8.80;8.10;;;28.40;13.30;;;;;;5111582;28;20201;-72
2021/07/27 06:54:45;;;;;;;7.90;7.50;;;28.70;12.90;;;;;;5111946;28;20203;-72
2021/07/27 06:57:11;;;;;;;8.30;7.70;;;29.20;13.20;;;;;;5099803;28;20496;-71
2021/07/27 06:59:36;;;;;;;9.50;8.90;;;29.80;11.80;;;;;;5102556;28;20181;-70
2021/07/27 07:02:02;;;;;;;9.60;9.10;;;30.50;10.80;;;;;;5089962;28;20201;-70
2021/07/27 07:04:28;;;;;;;9.67;9.10;;;30.70;10.00;;;;;;5106109;28;20180;-71
2021/07/27 07:06:53;;;;;;;9.50;8.90;;;30.90;10.10;;;;;;5110307;28;20235;-70
2021/07/27 07:09:19;;;;;;;10.90;10.13;;;31.20;10.50;;;;;;5111434;28;20168;-70
2021/07/27 07:11:44;;;;;;;10.13;9.53;;;31.40;9.50;;;;;;5111639;28;20184;-71
2021/07/27 07:14:10;;;;;;;10.83;9.73;;;31.70;9.20;;;;;;5111505;28;20176;-72
2021/07/27 07:16:35;;;;;;;10.90;10.20;;;32.20;8.10;;;;;;5109966;28;20180;-72
2021/07/27 07:19:01;;;;;;;10.30;9.80;;;32.40;7.00;;;;;;5074380;28;20282;-70
2021/07/27 07:21:26;;;;;;;10.37;9.87;;;32.30;7.50;;;;;;5065887;28;20289;-72
2021/07/27 07:23:52;;;;;;;11.17;10.57;;;32.50;7.20;;;;;;5068378;28;20189;-72
2021/07/27 07:26:17;;;;;;;11.37;10.87;;;32.70;7.70;;;;;;5086069;28;20195;-72
2021/07/27 07:28:43;;;;;;;11.83;11.23;;;32.80;8.00;;;;;;5109728;28;20180;-70
2021/07/27 07:31:16;;;;;;;11.77;11.10;;;33.30;8.00;;;;;;5107442;28;20188;-71
2021/07/27 07:33:42;;;;;;;12.20;11.60;;;33.90;7.20;;;;;;5087912;28;20284;-72
2021/07/27 07:36:12;;;;;;;13.40;12.60;;;34.30;6.60;;;;;;5074782;28;20443;-70
2021/07/27 07:38:39;;;;;;;13.93;12.77;;;34.30;6.60;;;;;;5083131;28;20493;-70
2021/07/27 07:41:09;;;;;;;12.97;12.37;;;34.20;6.50;;;;;;5090274;28;20427;-70
2021/07/27 07:43:35;;;;;;;13.70;12.90;;;34.20;6.50;;;;;;5090690;28;20419;-71
2021/07/27 07:46:01;;;;;;;13.03;12.43;;;34.20;6.40;;;;;;5090521;28;21078;-70
2021/07/27 07:48:27;;;;;;;13.93;13.27;;;34.30;6.60;;;;;;5090094;28;20466;-71
2021/07/27 07:50:52;;;;;;;13.77;13.07;;;34.50;6.60;;;;;;5090602;28;20183;-70
2021/07/27 07:53:18;;;;;;;14.43;13.83;;;34.80;5.90;;;;;;5094447;28;20704;-70
2021/07/27 07:55:43;;;;;;;14.77;13.97;;;34.20;3.50;;;;;;5090398;28;20177;-72
2021/07/27 07:58:09;;;;;;;15.13;14.43;;;33.50;4.90;;;;;;5089306;28;20189;-70
2021/07/27 08:00:34;;;;;;;18.03;16.10;;;33.10;5.90;;;;;;5071701;28;20186;-69
2021/07/27 08:03:03;;;;;;;15.50;14.80;;;32.60;6.00;;;;;;5088423;28;20209;-71
2021/07/27 08:05:29;;;;;;;16.20;15.40;;;32.10;6.60;;;;;;5090875;28;20216;-70
2021/07/27 08:07:55;;;;;;;15.70;15.00;;;32.00;5.60;;;;;;5089660;28;20493;-71
2021/07/27 08:10:21;;;;;;;15.97;15.20;;;32.40;6.40;;;;;;5089787;28;20866;-71
2021/07/27 08:12:47;;;;;;;16.93;16.03;;;33.10;6.00;;;;;;5089645;28;20205;-70
2021/07/27 08:15:17;;;;;;;16.83;16.03;;;33.30;5.30;;;;;;5087900;28;20423;-69
2021/07/27 08:17:43;;;;;;;17.43;16.53;;;32.80;5.80;;;;;;5098038;28;20449;-69
2021/07/27 08:20:10;;;;;;;16.90;16.10;;;32.80;4.80;;;;;;5083438;28;20494;-71
2021/07/27 08:22:40;;;;;;;17.40;16.70;;;33.00;5.90;;;;;;5100013;22;20232;-70
2021/07/27 08:25:07;;;;;;;18.20;17.00;;;33.60;6.20;;;;;;5090692;28;20422;-70
2021/07/27 08:27:33;;;;;;;17.67;16.90;;;34.50;3.60;;;;;;5107863;28;20465;-73
2021/07/27 08:29:58;;;;;;;18.70;17.90;;;34.60;2.50;;;;;;5110228;28;20418;-72
2021/07/27 08:32:24;;;;;;;18.50;17.70;;;34.80;1.30;;;;;;5093036;28;20679;-72
2021/07/27 08:34:49;;;;;;;18.80;18.00;;;34.50;2.30;;;;;;5070565;28;20181;-72
2021/07/27 08:37:15;;;;;;;18.63;17.83;;;34.80;4.50;;;;;;5069638;28;20185;-71
2021/07/27 08:39:40;;;;;;;19.13;18.33;;;34.90;2.30;;;;;;5069377;28;20186;-71
2021/07/27 08:42:07;;;;;;;19.83;18.90;;;35.00;1.70;;;;;;5068857;28;20671;-70
2021/07/27 08:44:36;;;;;;;20.07;19.17;;;34.80;2.00;;;;;;5074067;28;20178;-71
2021/07/27 08:47:03;;;;;;;19.90;19.00;;;34.30;2.70;;;;;;5073264;28;20448;-71
2021/07/27 08:49:30;;;;;;;20.33;19.40;;;34.00;2.90;;;;;;5073132;28;20462;-71
2021/07/27 08:51:56;;;;;;;19.80;18.90;;;33.90;3.80;;;;;;5073544;28;20432;-70
2021/07/27 08:54:22;;;;;;;20.73;19.70;;;33.60;2.40;;;;;;5073771;28;20508;-72
2021/07/27 08:56:48;;;;;;;20.37;19.47;;;32.70;3.50;;;;;;5073265;28;20464;-70
2021/07/27 08:59:18;;;;;;;20.33;19.33;;;32.00;4.80;;;;;;5072780;28;20185;-70
2021/07/27 09:01:44;;;;;;;20.27;19.40;;;31.50;6.20;;;;;;5073234;28;20463;-71
2021/07/27 09:04:11;;;;;;;19.73;18.83;;;31.10;6.80;;;;;;5073459;28;20420;-71
2021/07/27 09:06:37;;;;;;;19.57;18.77;;;30.70;5.80;;;;;;5072849;28;20448;-72
2021/07/27 09:09:07;;;;;;;20.20;19.40;;;30.20;6.60;;;;;;5073021;28;20412;-71
2021/07/27 09:11:46;;;;;;;20.40;19.07;;;29.60;6.60;;;;;;5055660;28;20498;-72
2021/07/27 09:14:16;;;;;;;19.00;18.10;;;29.20;8.00;;;;;;5072912;28;20453;-71
2021/07/27 09:16:45;;;;;;;20.10;19.03;;;29.00;9.00;;;;;;5072888;28;20531;-70
2021/07/27 09:19:10;;;;;;;18.37;17.30;;;28.90;9.00;;;;;;5073021;28;20507;-72
2021/07/27 09:21:36;;;;;;;17.63;16.50;;;28.20;11.70;;;;;;5072796;28;20483;-73
2021/07/27 09:24:01;;;;;;;17.40;16.60;;;27.40;12.30;;;;;;5072642;28;20178;-71
2021/07/27 09:26:27;;;;;;;18.40;17.23;;;27.10;12.10;;;;;;5072246;28;20586;-71
2021/07/27 09:29:03;;;;;;;17.80;17.00;;;27.00;12.80;;;;;;5072582;28;20182;-71
2021/07/27 09:31:31;;;;;;;19.03;17.13;;;27.00;13.00;;;;;;5071669;28;20194;-71
2021/07/27 09:33:57;;;;;;;17.37;16.67;;;27.10;12.10;;;;;;5071330;28;20412;-70
2021/07/27 09:36:25;;;;;;;17.80;16.90;;;27.00;12.10;;;;;;5071704;28;21001;-71
2021/07/27 09:39:02;;;;;;;17.63;16.73;;;26.60;12.40;;;;;;5066717;28;20610;-70
2021/07/27 09:41:31;;;;;;;16.73;15.63;;;26.50;13.40;;;;;;5073419;28;20416;-71
2021/07/27 09:43:58;;;;;;;15.70;14.90;;;26.20;14.20;;;;;;5092570;28;20469;-72
2021/07/27 09:46:27;;;;;;;18.17;16.97;;;26.20;14.30;;;;;;5091392;28;20403;-71
2021/07/27 09:48:56;;;;;;;17.47;16.47;;;26.20;13.70;;;;;;5026151;28;20934;-74
2021/07/27 09:51:21;;;;;;;15.33;14.53;;;26.10;14.40;;;;;;5050115;28;20449;-72
2021/07/27 09:53:48;;;;;;;14.97;14.33;;;25.90;14.60;;;;;;5055421;28;20571;-72
2021/07/27 09:56:17;;;;;;;15.83;15.03;;;26.20;15.00;;;;;;5092018;28;20165;-72
2021/07/27 09:58:43;;;;;;;15.00;14.30;;;26.30;15.10;;;;;;5074371;28;20439;-71
2021/07/27 10:01:17;;;;;;;14.57;13.77;;;26.10;14.90;;;;;;5072566;28;20471;-72
2021/07/27 10:03:59;;;;;;;13.80;13.20;;;26.00;15.80;;;;;;5054992;28;20616;-70
2021/07/27 10:06:27;;;;;;;12.90;12.10;;;26.10;16.10;;;;;;5074831;28;20442;-72
2021/07/27 10:08:57;;;;;;;15.20;14.37;;;26.30;15.30;;;;;;5071491;28;20416;-71
2021/07/27 10:11:36;;;;;;;14.63;13.93;;;26.20;16.10;;;;;;5048642;28;20409;-71
2021/07/27 10:14:07;;;;;;;14.13;13.33;;;26.10;15.30;;;;;;5051405;28;20538;-71
2021/07/27 10:16:32;;;;;;;16.17;15.37;;;26.40;16.20;;;;;;5072217;28;20482;-71
2021/07/27 10:18:58;;;;;;;14.53;13.83;;;26.70;13.30;;;;;;5073271;28;20420;-71
2021/07/27 10:21:28;;;;;;;15.00;14.30;;;26.70;15.40;;;;;;5071662;28;20178;-71
2021/07/27 10:24:08;;;;;;;16.33;13.33;;;26.80;15.50;;;;;;5071515;28;20167;-71
2021/07/27 10:26:34;;;;;;;15.90;14.73;;;26.90;15.90;;;;;;5064712;28;20423;-72
2021/07/27 10:29:01;;;;;;;15.43;14.73;;;27.00;14.90;;;;;;5071755;28;20829;-73
2021/07/27 10:31:36;;;;;;;16.10;15.40;;;27.30;14.80;;;;;;5071836;28;20416;-73
2021/07/27 10:34:04;;;;;;;16.07;15.20;;;27.60;12.40;;;;;;5072058;28;20430;-71
2021/07/27 10:36:38;;;;;;;16.57;15.87;;;28.00;14.90;;;;;;5071606;28;20967;-71
2021/07/27 10:39:06;;;;;;;18.10;17.20;;;28.30;11.70;;;;;;5053728;28;20432;-72
2021/07/27 10:41:39;;;;;;;17.43;16.63;;;28.50;10.90;;;;;;5071973;28;20436;-71
2021/07/27 10:44:29;;;;;;;18.33;17.43;;;28.30;10.90;;;;;;5071410;28;20503;-70
2021/07/27 10:46:54;;;;;;;18.93;17.57;;;28.10;12.10;;;;;;5065137;28;20893;-71
2021/07/27 10:49:22;;;;;;;17.23;16.43;;;28.20;11.30;;;;;;5081284;28;20411;-71
2021/07/27 10:51:50;;;;;;;17.80;16.70;;;28.30;10.70;;;;;;5088386;28;20203;-70
2021/07/27 10:54:23;;;;;;;16.97;16.13;;;27.90;10.50;;;;;;5071008;28;20785;-70
2021/07/27 10:57:02;;;;;;;16.63;15.93;;;27.70;11.10;;;;;;5072034;28;20404;-70
2021/07/27 10:59:34;;;;;;;17.53;16.73;;;27.60;11.50;;;;;;5073818;28;20439;-70
2021/07/27 11:02:00;;;;;;;19.00;17.90;;;27.50;11.60;;;;;;5075331;28;20526;-70
2021/07/27 11:04:30;;;;;;;17.53;16.23;;;27.20;12.10;;;;;;5075663;28;20428;-70
2021/07/27 11:07:13;;;;;;;16.60;15.90;;;27.10;12.10;;;;;;5075356;28;20458;-71
2021/07/27 11:09:53;;;;;;;17.10;16.30;;;26.60;12.20;;;;;;5077613;28;20461;-71
2021/07/27 11:12:41;;;;;;;16.30;15.50;;;26.70;11.90;;;;;;5075462;28;20432;-72
2021/07/27 11:15:18;;;;;;;17.10;16.23;;;26.90;12.00;;;;;;5075368;28;20435;-73
2021/07/27 11:18:02;;;;;;;16.90;15.93;;;26.90;12.00;;;;;;5074972;28;20412;-73
2021/07/27 11:20:31;;;;;;;16.17;15.47;;;27.10;12.10;;;;;;5075646;28;20473;-73
2021/07/27 11:22:59;;;;;;;16.30;15.60;;;27.00;12.60;;;;;;5074950;28;20460;-73
2021/07/27 11:25:27;;;;;;;16.67;15.87;;;26.90;12.00;;;;;;5075010;28;20917;-72
2021/07/27 11:27:53;;;;;;;17.57;16.70;;;26.80;11.90;;;;;;5075544;28;20463;-72
2021/07/27 11:30:21;;;;;;;16.20;15.50;;;26.70;11.90;;;;;;5074833;28;20959;-72
2021/07/27 11:32:51;;;;;;;16.63;15.70;;;27.00;12.00;;;;;;5075183;28;20535;-76
2021/07/27 11:35:22;;;;;;;17.30;16.53;;;27.40;12.30;;;;;;5092610;28;20438;-73
2021/07/27 11:38:00;;;;;;;17.23;16.53;;;27.80;11.00;;;;;;5075589;28;20400;-72
2021/07/27 11:40:26;;;;;;;19.47;18.37;;;27.80;11.10;;;;;;5074763;28;20506;-74
2021/07/27 11:43:09;;;;;;;18.67;17.70;;;27.90;10.90;;;;;;5095213;28;20480;-72
2021/07/27 11:45:45;;;;;;;17.50;16.60;;;28.00;9.80;;;;;;5094899;28;20387;-72
2021/07/27 11:48:12;;;;;;;15.70;15.00;;;28.30;11.40;;;;;;5094793;28;20986;-72
2021/07/27 11:50:40;;;;;;;17.73;16.93;;;28.40;12.80;;;;;;5081955;28;20426;-73
2021/07/27 11:53:06;;;;;;;17.30;16.40;;;28.40;11.40;;;;;;5074161;28;20424;-74
2021/07/27 11:55:34;;;;;;;16.97;16.17;;;28.40;12.80;;;;;;5074334;28;20911;-73
2021/07/27 11:58:01;;;;;;;17.43;16.40;;;28.60;11.40;;;;;;5073920;28;20424;-72
2021/07/27 12:00:27;;;;;;;18.17;17.17;;;28.60;12.00;;;;;;5073728;28;20427;-72
2021/07/27 12:02:53;;;;;;;17.70;16.87;;;28.80;10.90;;;;;;5074350;28;20436;-72
2021/07/27 12:05:19;;;;;;;17.37;16.57;;;28.50;11.00;;;;;;5056683;28;20422;-72
2021/07/27 12:07:45;;;;;;;17.57;16.80;;;28.30;12.70;;;;;;5074355;28;20542;-72
2021/07/27 12:10:12;;;;;;;18.00;17.10;;;28.40;10.70;;;;;;5074003;28;20189;-73
2021/07/27 12:12:38;;;;;;;18.87;17.57;;;28.50;11.40;;;;;;5074286;28;20198;-73
2021/07/27 12:15:04;;;;;;;19.00;18.00;;;28.70;11.10;;;;;;5074783;28;20959;-73
2021/07/27 12:17:30;;;;;;;18.17;17.37;;;28.80;11.30;;;;;;5074132;28;20527;-73
2021/07/27 12:19:56;;;;;;;18.47;17.57;;;28.90;10.90;;;;;;5073673;28;20443;-72
2021/07/27 12:22:22;;;;;;;18.83;17.93;;;29.00;11.70;;;;;;5073919;28;20233;-75
2021/07/27 12:24:47;;;;;;;18.60;17.70;;;29.10;11.10;;;;;;5074795;28;20909;-72
2021/07/27 12:27:13;;;;;;;20.60;19.40;;;29.40;11.30;;;;;;5074155;28;20230;-73
2021/07/27 12:29:38;;;;;;;18.10;17.30;;;29.50;9.80;;;;;;5073680;28;20178;-73
2021/07/27 12:32:04;;;;;;;18.13;17.33;;;29.40;11.40;;;;;;5074116;28;20202;-74
2021/07/27 12:34:30;;;;;;;18.67;17.77;;;29.10;11.20;;;;;;5059973;28;20647;-72
2021/07/27 12:36:56;;;;;;;17.60;16.80;;;28.80;10.40;;;;;;5053854;28;20906;-73
2021/07/27 12:39:23;;;;;;;19.37;18.20;;;29.00;11.00;;;;;;5054381;28;20421;-73
2021/07/27 12:41:49;;;;;;;19.00;18.13;;;28.90;10.90;;;;;;5085531;28;20701;-72
2021/07/27 12:44:16;;;;;;;17.60;16.80;;;29.10;9.60;;;;;;5078082;28;20777;-72
2021/07/27 12:46:42;;;;;;;18.30;17.47;;;29.10;10.20;;;;;;5074094;28;20546;-73
2021/07/27 12:49:09;;;;;;;20.93;19.20;;;29.10;9.80;;;;;;5073511;28;20404;-72
2021/07/27 12:51:35;;;;;;;19.33;18.40;;;28.90;10.10;;;;;;5073530;28;20424;-72
2021/07/27 12:54:01;;;;;;;18.40;17.60;;;28.90;11.60;;;;;;5073276;28;20487;-70
2021/07/27 12:56:27;;;;;;;19.27;18.30;;;28.90;11.30;;;;;;5073034;28;20420;-73
2021/07/27 12:58:52;;;;;;;18.13;17.27;;;29.00;10.70;;;;;;5073336;28;20890;-71
2021/07/27 13:01:18;;;;;;;18.00;17.20;;;28.90;11.80;;;;;;5072634;28;20265;-70
2021/07/27 13:03:43;;;;;;;18.97;18.10;;;28.90;11.30;;;;;;5073220;28;20228;-70